Airfield :
LOGIN :

Register | Disclaimer

   EN    FR    IT 

 










Legend :    VFR   Marginal VFR   IFR   Intensive IFR   Very Intensive IFR
Visi :
Ceiling :
>= 8 km
>= 3000ft
5 to 8 km
1000 to 3000 ft
1500m to 5 km
500 to 1000 ft
800 to 1500m
200 to 500 ft
< 800m
< 200 ft
Symbols :   Thunderstorms  Fog  Heavy snow  Heavy precipitations  Wind > 20 kt
SIGMETs :     Misc.  Thunderstorms  Icing  Turbulence  Mountain Waves  Volcanic Ashes






- Airport Elevation : 370 ft


EBBE - Beauvechain AB

CURRENT METAR :
  • 201055Z 05003KT 9000 FEW024 14/07 Q1017 BLU BLU

EXPIRED METARs :
  • 201025Z 03003KT 9000 FEW020 14/07 Q1018 BLU BLU
  • 201003Z VRB02KT 8000 FEW018 13/07 Q1018 BLU BLU
  • 200925Z VRB01KT 6000 FEW015 12/07 Q1018 WHT WHT BECMG BLU
  • 200855Z VRB01KT 5000 BR FEW008 11/07 Q1018 WHT WHT BECMG BLU
  • 200853Z VRB01KT 5000 BR FEW008 11/07 Q1018 WHT WHT BECMG BLU
  • 200837Z VRB01KT 3700 BR FEW008 10/08 Q1018 GRN GRN BECMG WHT
  • 200825Z VRB01KT 2500 BR SCT006 09/08 Q1018 YLO YLO BECMG GRN

TAF TAF EBBE
Valid from the 20 at 10:00 until the 20 at 19:00 UTC


200841Z 2010/2019 VRB03KT 9999 FEW020
PROB40
TEMPO 2010/2014 7000 -SHRA SCT020TCU



MET'MAP, your aeronautical weather chart ! - Copyright ORBIFLY December 2007 - Disclaimer

ORBIFLY MET'MAP TEAM :

Programming & Development : Alexandra Zaïnal
Concept & original design : Baudouin d'Aumeries
Assistance for programming : Marc-Olivier Méhu
Technical & hardware support : Manuel Goepfert

Contact : metmap@orbifly.com




SOURCES & CREDITS :

   NOAA